LFPM 171400Z AUTO VRB02KT CAVOK 26/12 Q1021

Les avions qui composent notre flotte

Avion Robin DR400-120

Avion école

F-BVMQ
   * tarif promotionnel appliqué pendant la formation des élèves non brevetés


F-BVMQ Planche